sensor_id;sensor_type;location;lat;lon;timestamp;temperature;humidity
35463;DHT22;21578;47.892;9.970;2023-02-21T00:02:44;5.80;96.60
35463;DHT22;21578;47.892;9.970;2023-02-21T00:07:49;5.70;96.60
35463;DHT22;21578;47.892;9.970;2023-02-21T00:12:53;5.70;96.60
35463;DHT22;21578;47.892;9.970;2023-02-21T00:17:59;5.60;96.60
35463;DHT22;21578;47.892;9.970;2023-02-21T00:23:03;5.60;96.60
35463;DHT22;21578;47.892;9.970;2023-02-21T00:28:07;5.50;96.60
35463;DHT22;21578;47.892;9.970;2023-02-21T00:33:13;5.50;96.60
35463;DHT22;21578;47.892;9.970;2023-02-21T00:38:17;5.40;96.60
35463;DHT22;21578;47.892;9.970;2023-02-21T00:43:27;5.40;96.60
35463;DHT22;21578;47.892;9.970;2023-02-21T00:48:32;5.40;96.60
35463;DHT22;21578;47.892;9.970;2023-02-21T00:53:37;5.40;96.60
35463;DHT22;21578;47.892;9.970;2023-02-21T00:58:41;5.50;96.60
35463;DHT22;21578;47.892;9.970;2023-02-21T01:03:46;5.50;96.60
35463;DHT22;21578;47.892;9.970;2023-02-21T01:08:51;5.40;96.60
35463;DHT22;21578;47.892;9.970;2023-02-21T01:13:55;5.40;96.60
35463;DHT22;21578;47.892;9.970;2023-02-21T01:19:01;5.40;96.60
35463;DHT22;21578;47.892;9.970;2023-02-21T01:24:06;5.30;96.60
35463;DHT22;21578;47.892;9.970;2023-02-21T01:29:12;5.20;96.60
35463;DHT22;21578;47.892;9.970;2023-02-21T01:34:17;5.20;96.60
35463;DHT22;21578;47.892;9.970;2023-02-21T01:39:22;5.10;96.60
35463;DHT22;21578;47.892;9.970;2023-02-21T01:44:30;5.10;96.60
35463;DHT22;21578;47.892;9.970;2023-02-21T01:49:38;5.10;96.60
35463;DHT22;21578;47.892;9.970;2023-02-21T01:54:46;5.00;96.60
35463;DHT22;21578;47.892;9.970;2023-02-21T01:59:54;5.00;96.60
35463;DHT22;21578;47.892;9.970;2023-02-21T02:05:01;5.00;96.60
35463;DHT22;21578;47.892;9.970;2023-02-21T02:10:07;4.90;96.60
35463;DHT22;21578;47.892;9.970;2023-02-21T02:15:27;4.90;96.60
35463;DHT22;21578;47.892;9.970;2023-02-21T02:20:56;4.90;96.60
35463;DHT22;21578;47.892;9.970;2023-02-21T02:26:02;4.90;96.60
35463;DHT22;21578;47.892;9.970;2023-02-21T02:31:14;4.90;96.60
35463;DHT22;21578;47.892;9.970;2023-02-21T02:36:06;4.80;96.60
35463;DHT22;21578;47.892;9.970;2023-02-21T02:40:58;4.80;96.60
35463;DHT22;21578;47.892;9.970;2023-02-21T02:45:50;4.80;96.60
35463;DHT22;21578;47.892;9.970;2023-02-21T02:50:40;4.70;96.60
35463;DHT22;21578;47.892;9.970;2023-02-21T02:55:36;4.70;96.60
35463;DHT22;21578;47.892;9.970;2023-02-21T03:00:25;4.70;96.60
35463;DHT22;21578;47.892;9.970;2023-02-21T03:05:26;4.60;96.60
35463;DHT22;21578;47.892;9.970;2023-02-21T03:10:22;4.60;96.60
35463;DHT22;21578;47.892;9.970;2023-02-21T03:15:19;4.50;96.60
35463;DHT22;21578;47.892;9.970;2023-02-21T03:20:09;4.40;96.60
35463;DHT22;21578;47.892;9.970;2023-02-21T03:24:58;4.40;96.60
35463;DHT22;21578;47.892;9.970;2023-02-21T03:29:46;4.40;96.60
35463;DHT22;21578;47.892;9.970;2023-02-21T03:34:34;4.40;96.60
35463;DHT22;21578;47.892;9.970;2023-02-21T03:39:21;4.40;96.60
35463;DHT22;21578;47.892;9.970;2023-02-21T03:44:08;4.40;96.60
35463;DHT22;21578;47.892;9.970;2023-02-21T03:48:55;4.40;96.60
35463;DHT22;21578;47.892;9.970;2023-02-21T03:53:43;4.40;96.60
35463;DHT22;21578;47.892;9.970;2023-02-21T03:58:30;4.30;96.60
35463;DHT22;21578;47.892;9.970;2023-02-21T04:03:17;4.30;96.60
35463;DHT22;21578;47.892;9.970;2023-02-21T04:08:04;4.30;96.60
35463;DHT22;21578;47.892;9.970;2023-02-21T04:12:52;4.20;96.60
35463;DHT22;21578;47.892;9.970;2023-02-21T04:17:39;4.20;96.60
35463;DHT22;21578;47.892;9.970;2023-02-21T04:22:26;4.10;96.60
35463;DHT22;21578;47.892;9.970;2023-02-21T04:27:13;4.10;96.60
35463;DHT22;21578;47.892;9.970;2023-02-21T04:32:02;4.10;96.60
35463;DHT22;21578;47.892;9.970;2023-02-21T04:36:49;4.10;96.60
35463;DHT22;21578;47.892;9.970;2023-02-21T04:41:36;4.00;96.60
35463;DHT22;21578;47.892;9.970;2023-02-21T04:46:22;4.00;96.60
35463;DHT22;21578;47.892;9.970;2023-02-21T04:51:11;4.00;96.60
35463;DHT22;21578;47.892;9.970;2023-02-21T04:55:58;4.00;96.60
35463;DHT22;21578;47.892;9.970;2023-02-21T05:00:44;4.00;96.60
35463;DHT22;21578;47.892;9.970;2023-02-21T05:05:31;4.00;96.60
35463;DHT22;21578;47.892;9.970;2023-02-21T05:10:20;4.00;96.60
35463;DHT22;21578;47.892;9.970;2023-02-21T05:15:08;4.00;96.60
35463;DHT22;21578;47.892;9.970;2023-02-21T05:19:55;4.10;96.60
35463;DHT22;21578;47.892;9.970;2023-02-21T05:24:42;4.10;96.60
35463;DHT22;21578;47.892;9.970;2023-02-21T05:29:30;4.10;96.60
35463;DHT22;21578;47.892;9.970;2023-02-21T05:34:17;4.20;96.60
35463;DHT22;21578;47.892;9.970;2023-02-21T05:39:05;4.20;96.60
35463;DHT22;21578;47.892;9.970;2023-02-21T05:43:53;4.10;96.60
35463;DHT22;21578;47.892;9.970;2023-02-21T05:48:41;4.20;96.60
35463;DHT22;21578;47.892;9.970;2023-02-21T05:53:28;4.20;96.60
35463;DHT22;21578;47.892;9.970;2023-02-21T05:58:14;4.20;96.60
35463;DHT22;21578;47.892;9.970;2023-02-21T06:03:02;4.20;96.60
35463;DHT22;21578;47.892;9.970;2023-02-21T06:07:50;4.40;96.60
35463;DHT22;21578;47.892;9.970;2023-02-21T06:12:37;4.30;96.60
35463;DHT22;21578;47.892;9.970;2023-02-21T06:17:24;4.20;96.60
35463;DHT22;21578;47.892;9.970;2023-02-21T06:22:11;4.10;96.60
35463;DHT22;21578;47.892;9.970;2023-02-21T06:26:59;4.00;96.60
35463;DHT22;21578;47.892;9.970;2023-02-21T06:31:46;4.00;96.60
35463;DHT22;21578;47.892;9.970;2023-02-21T06:36:33;4.00;96.60
35463;DHT22;21578;47.892;9.970;2023-02-21T06:41:23;4.10;96.60
35463;DHT22;21578;47.892;9.970;2023-02-21T06:46:14;4.10;96.60
35463;DHT22;21578;47.892;9.970;2023-02-21T06:51:02;4.10;96.60
35463;DHT22;21578;47.892;9.970;2023-02-21T06:55:51;4.20;96.60
35463;DHT22;21578;47.892;9.970;2023-02-21T07:00:38;4.20;96.60
35463;DHT22;21578;47.892;9.970;2023-02-21T07:05:26;4.30;96.60
35463;DHT22;21578;47.892;9.970;2023-02-21T07:10:13;4.40;96.60
35463;DHT22;21578;47.892;9.970;2023-02-21T07:15:00;4.50;96.60
35463;DHT22;21578;47.892;9.970;2023-02-21T07:19:47;4.60;96.60
35463;DHT22;21578;47.892;9.970;2023-02-21T07:24:35;4.70;96.60
35463;DHT22;21578;47.892;9.970;2023-02-21T07:29:23;4.70;96.60
35463;DHT22;21578;47.892;9.970;2023-02-21T07:34:10;4.80;96.60
35463;DHT22;21578;47.892;9.970;2023-02-21T07:38:57;4.90;96.60
35463;DHT22;21578;47.892;9.970;2023-02-21T07:43:46;5.00;96.60
35463;DHT22;21578;47.892;9.970;2023-02-21T07:48:33;5.10;96.60
35463;DHT22;21578;47.892;9.970;2023-02-21T07:53:20;5.10;96.60
35463;DHT22;21578;47.892;9.970;2023-02-21T07:58:07;5.20;96.60
35463;DHT22;21578;47.892;9.970;2023-02-21T08:02:55;5.30;96.60
35463;DHT22;21578;47.892;9.970;2023-02-21T08:07:42;5.40;95.90
35463;DHT22;21578;47.892;9.970;2023-02-21T08:12:29;5.50;95.80
35463;DHT22;21578;47.892;9.970;2023-02-21T08:17:16;5.80;95.90
35463;DHT22;21578;47.892;9.970;2023-02-21T08:22:04;5.80;96.60
35463;DHT22;21578;47.892;9.970;2023-02-21T08:26:51;5.90;96.60
35463;DHT22;21578;47.892;9.970;2023-02-21T08:31:39;6.10;96.20
35463;DHT22;21578;47.892;9.970;2023-02-21T08:36:30;6.30;96.10
35463;DHT22;21578;47.892;9.970;2023-02-21T08:41:18;6.40;96.40
35463;DHT22;21578;47.892;9.970;2023-02-21T08:46:05;6.50;96.50
35463;DHT22;21578;47.892;9.970;2023-02-21T08:50:53;6.70;95.70
35463;DHT22;21578;47.892;9.970;2023-02-21T08:55:40;7.00;95.00
35463;DHT22;21578;47.892;9.970;2023-02-21T09:00:29;7.20;94.60
35463;DHT22;21578;47.892;9.970;2023-02-21T09:05:17;7.50;94.00
35463;DHT22;21578;47.892;9.970;2023-02-21T09:10:06;7.60;94.90
35463;DHT22;21578;47.892;9.970;2023-02-21T09:14:54;7.80;95.30
35463;DHT22;21578;47.892;9.970;2023-02-21T09:19:42;8.10;93.70
35463;DHT22;21578;47.892;9.970;2023-02-21T09:24:30;8.30;93.00
35463;DHT22;21578;47.892;9.970;2023-02-21T09:29:17;8.50;91.90
35463;DHT22;21578;47.892;9.970;2023-02-21T09:34:04;8.60;91.00
35463;DHT22;21578;47.892;9.970;2023-02-21T09:38:52;8.80;90.50
35463;DHT22;21578;47.892;9.970;2023-02-21T09:43:42;8.90;89.70
35463;DHT22;21578;47.892;9.970;2023-02-21T09:48:30;9.10;89.60
35463;DHT22;21578;47.892;9.970;2023-02-21T09:53:19;9.30;86.40
35463;DHT22;21578;47.892;9.970;2023-02-21T09:58:12;9.50;82.80
35463;DHT22;21578;47.892;9.970;2023-02-21T10:03:10;9.60;83.00
35463;DHT22;21578;47.892;9.970;2023-02-21T10:08:06;9.90;81.50
35463;DHT22;21578;47.892;9.970;2023-02-21T10:12:58;9.90;82.70
35463;DHT22;21578;47.892;9.970;2023-02-21T10:17:56;10.10;82.90
35463;DHT22;21578;47.892;9.970;2023-02-21T10:22:47;10.20;83.40
35463;DHT22;21578;47.892;9.970;2023-02-21T10:27:35;10.40;82.50
35463;DHT22;21578;47.892;9.970;2023-02-21T10:32:23;10.60;81.20
35463;DHT22;21578;47.892;9.970;2023-02-21T10:37:23;10.70;80.70
35463;DHT22;21578;47.892;9.970;2023-02-21T10:42:13;10.80;80.10
35463;DHT22;21578;47.892;9.970;2023-02-21T10:47:12;10.90;78.40
35463;DHT22;21578;47.892;9.970;2023-02-21T10:52:09;11.00;77.90
35463;DHT22;21578;47.892;9.970;2023-02-21T10:56:59;11.10;77.40
35463;DHT22;21578;47.892;9.970;2023-02-21T11:01:46;11.30;78.10
35463;DHT22;21578;47.892;9.970;2023-02-21T11:06:36;11.50;77.10
35463;DHT22;21578;47.892;9.970;2023-02-21T11:11:32;11.60;76.30
35463;DHT22;21578;47.892;9.970;2023-02-21T11:16:20;11.80;75.70
35463;DHT22;21578;47.892;9.970;2023-02-21T11:21:14;11.90;75.10
35463;DHT22;21578;47.892;9.970;2023-02-21T11:26:06;12.20;74.70
35463;DHT22;21578;47.892;9.970;2023-02-21T11:31:07;12.30;72.30
35463;DHT22;21578;47.892;9.970;2023-02-21T11:36:10;12.50;72.70
35463;DHT22;21578;47.892;9.970;2023-02-21T11:40:57;12.70;71.80
35463;DHT22;21578;47.892;9.970;2023-02-21T11:46:01;12.80;70.20
35463;DHT22;21578;47.892;9.970;2023-02-21T11:50:51;13.00;67.80
35463;DHT22;21578;47.892;9.970;2023-02-21T11:55:41;13.00;68.60
35463;DHT22;21578;47.892;9.970;2023-02-21T12:00:40;13.10;65.20
35463;DHT22;21578;47.892;9.970;2023-02-21T12:05:34;13.40;65.60
35463;DHT22;21578;47.892;9.970;2023-02-21T12:10:37;13.50;64.00
35463;DHT22;21578;47.892;9.970;2023-02-21T12:15:31;13.60;64.10
35463;DHT22;21578;47.892;9.970;2023-02-21T12:20:31;13.70;59.50
35463;DHT22;21578;47.892;9.970;2023-02-21T12:25:28;13.90;59.90
35463;DHT22;21578;47.892;9.970;2023-02-21T12:30:46;14.10;56.90
35463;DHT22;21578;47.892;9.970;2023-02-21T12:35:58;14.30;59.40
35463;DHT22;21578;47.892;9.970;2023-02-21T12:40:58;14.40;60.00
35463;DHT22;21578;47.892;9.970;2023-02-21T12:45:54;14.50;56.90
35463;DHT22;21578;47.892;9.970;2023-02-21T12:50:47;14.80;57.90
35463;DHT22;21578;47.892;9.970;2023-02-21T12:55:38;14.90;54.30
35463;DHT22;21578;47.892;9.970;2023-02-21T13:00:30;14.80;57.70
35463;DHT22;21578;47.892;9.970;2023-02-21T13:05:26;14.80;55.90
35463;DHT22;21578;47.892;9.970;2023-02-21T13:10:17;14.90;56.70
35463;DHT22;21578;47.892;9.970;2023-02-21T13:15:15;15.10;55.80
35463;DHT22;21578;47.892;9.970;2023-02-21T13:20:05;15.10;54.90
35463;DHT22;21578;47.892;9.970;2023-02-21T13:25:00;15.30;55.90
35463;DHT22;21578;47.892;9.970;2023-02-21T13:29:50;15.50;55.40
35463;DHT22;21578;47.892;9.970;2023-02-21T13:34:39;15.60;55.40
35463;DHT22;21578;47.892;9.970;2023-02-21T13:39:29;15.80;56.00
35463;DHT22;21578;47.892;9.970;2023-02-21T13:44:25;16.00;55.70
35463;DHT22;21578;47.892;9.970;2023-02-21T13:49:43;16.20;55.20
35463;DHT22;21578;47.892;9.970;2023-02-21T13:54:32;16.20;54.20
35463;DHT22;21578;47.892;9.970;2023-02-21T13:59:33;16.00;55.30
35463;DHT22;21578;47.892;9.970;2023-02-21T14:09:47;16.30;55.50
35463;DHT22;21578;47.892;9.970;2023-02-21T14:14:37;16.30;55.30
35463;DHT22;21578;47.892;9.970;2023-02-21T14:19:31;16.30;54.60
35463;DHT22;21578;47.892;9.970;2023-02-21T14:24:22;16.20;54.60
35463;DHT22;21578;47.892;9.970;2023-02-21T14:29:26;16.00;54.10
35463;DHT22;21578;47.892;9.970;2023-02-21T14:34:20;15.90;54.90
35463;DHT22;21578;47.892;9.970;2023-02-21T14:39:08;15.90;55.50
35463;DHT22;21578;47.892;9.970;2023-02-21T14:44:07;15.70;54.30
35463;DHT22;21578;47.892;9.970;2023-02-21T14:49:33;15.60;56.30
35463;DHT22;21578;47.892;9.970;2023-02-21T14:54:49;15.50;56.70
35463;DHT22;21578;47.892;9.970;2023-02-21T15:00:01;15.40;56.30
35463;DHT22;21578;47.892;9.970;2023-02-21T15:05:01;15.30;57.50
35463;DHT22;21578;47.892;9.970;2023-02-21T15:10:13;15.20;56.20
35463;DHT22;21578;47.892;9.970;2023-02-21T15:15:01;15.10;56.90
35463;DHT22;21578;47.892;9.970;2023-02-21T15:20:03;15.10;56.80
35463;DHT22;21578;47.892;9.970;2023-02-21T15:25:10;15.00;58.40
35463;DHT22;21578;47.892;9.970;2023-02-21T15:30:06;15.00;58.90
35463;DHT22;21578;47.892;9.970;2023-02-21T15:34:53;15.00;59.20
35463;DHT22;21578;47.892;9.970;2023-02-21T15:39:44;14.90;59.30
35463;DHT22;21578;47.892;9.970;2023-02-21T15:44:38;14.80;59.80
35463;DHT22;21578;47.892;9.970;2023-02-21T15:49:28;14.80;59.50
35463;DHT22;21578;47.892;9.970;2023-02-21T15:54:26;14.60;59.80
35463;DHT22;21578;47.892;9.970;2023-02-21T15:59:18;14.50;60.80
35463;DHT22;21578;47.892;9.970;2023-02-21T16:04:17;14.50;60.70
35463;DHT22;21578;47.892;9.970;2023-02-21T16:09:16;14.40;61.60
35463;DHT22;21578;47.892;9.970;2023-02-21T16:14:19;14.30;61.80
35463;DHT22;21578;47.892;9.970;2023-02-21T16:19:07;14.20;62.00
35463;DHT22;21578;47.892;9.970;2023-02-21T16:23:54;14.20;62.20
35463;DHT22;21578;47.892;9.970;2023-02-21T16:28:45;14.10;62.70
35463;DHT22;21578;47.892;9.970;2023-02-21T16:33:36;14.00;63.10
35463;DHT22;21578;47.892;9.970;2023-02-21T16:38:24;13.80;63.60
35463;DHT22;21578;47.892;9.970;2023-02-21T16:43:17;13.60;64.50
35463;DHT22;21578;47.892;9.970;2023-02-21T16:48:05;13.30;65.40
35463;DHT22;21578;47.892;9.970;2023-02-21T16:52:55;13.10;66.50
35463;DHT22;21578;47.892;9.970;2023-02-21T16:57:48;12.90;67.40
35463;DHT22;21578;47.892;9.970;2023-02-21T17:02:35;12.70;67.90
35463;DHT22;21578;47.892;9.970;2023-02-21T17:07:22;12.40;68.50
35463;DHT22;21578;47.892;9.970;2023-02-21T17:12:12;12.20;69.60
35463;DHT22;21578;47.892;9.970;2023-02-21T17:17:26;11.90;71.40
35463;DHT22;21578;47.892;9.970;2023-02-21T17:23:25;11.60;72.30
35463;DHT22;21578;47.892;9.970;2023-02-21T17:28:14;11.30;72.80
35463;DHT22;21578;47.892;9.970;2023-02-21T17:33:01;11.20;73.30
35463;DHT22;21578;47.892;9.970;2023-02-21T17:37:48;11.10;74.00
35463;DHT22;21578;47.892;9.970;2023-02-21T17:42:36;10.90;74.30
35463;DHT22;21578;47.892;9.970;2023-02-21T17:47:24;10.80;75.30
35463;DHT22;21578;47.892;9.970;2023-02-21T17:52:43;10.70;76.30
35463;DHT22;21578;47.892;9.970;2023-02-21T17:57:32;10.50;77.60
35463;DHT22;21578;47.892;9.970;2023-02-21T18:02:21;10.40;78.50
35463;DHT22;21578;47.892;9.970;2023-02-21T18:07:10;10.30;79.20
35463;DHT22;21578;47.892;9.970;2023-02-21T18:11:58;10.20;80.20
35463;DHT22;21578;47.892;9.970;2023-02-21T18:16:50;10.10;80.50
35463;DHT22;21578;47.892;9.970;2023-02-21T18:21:44;10.00;81.00
35463;DHT22;21578;47.892;9.970;2023-02-21T18:26:53;9.90;81.10
35463;DHT22;21578;47.892;9.970;2023-02-21T18:31:55;9.80;81.40
35463;DHT22;21578;47.892;9.970;2023-02-21T18:36:47;9.70;81.80
35463;DHT22;21578;47.892;9.970;2023-02-21T18:41:35;9.60;82.40
35463;DHT22;21578;47.892;9.970;2023-02-21T18:46:22;9.60;82.70
35463;DHT22;21578;47.892;9.970;2023-02-21T18:51:10;9.50;83.00
35463;DHT22;21578;47.892;9.970;2023-02-21T18:55:58;9.50;83.20
35463;DHT22;21578;47.892;9.970;2023-02-21T19:00:49;9.40;83.50
35463;DHT22;21578;47.892;9.970;2023-02-21T19:05:37;9.30;83.50
35463;DHT22;21578;47.892;9.970;2023-02-21T19:10:26;9.30;84.00
35463;DHT22;21578;47.892;9.970;2023-02-21T19:15:14;9.20;84.40
35463;DHT22;21578;47.892;9.970;2023-02-21T19:20:04;9.10;84.90
35463;DHT22;21578;47.892;9.970;2023-02-21T19:24:51;9.00;85.10
35463;DHT22;21578;47.892;9.970;2023-02-21T19:29:38;8.90;85.50
35463;DHT22;21578;47.892;9.970;2023-02-21T19:34:25;8.90;86.00
35463;DHT22;21578;47.892;9.970;2023-02-21T19:39:13;8.80;86.20
35463;DHT22;21578;47.892;9.970;2023-02-21T19:44:00;8.70;86.50
35463;DHT22;21578;47.892;9.970;2023-02-21T19:48:50;8.70;86.90
35463;DHT22;21578;47.892;9.970;2023-02-21T19:53:37;8.70;87.10
35463;DHT22;21578;47.892;9.970;2023-02-21T19:58:26;8.60;87.30
35463;DHT22;21578;47.892;9.970;2023-02-21T20:03:13;8.60;87.30
35463;DHT22;21578;47.892;9.970;2023-02-21T20:08:09;8.50;87.60
35463;DHT22;21578;47.892;9.970;2023-02-21T20:12:57;8.40;87.90
35463;DHT22;21578;47.892;9.970;2023-02-21T20:17:45;8.50;87.70
35463;DHT22;21578;47.892;9.970;2023-02-21T20:22:32;8.40;87.80
35463;DHT22;21578;47.892;9.970;2023-02-21T20:27:19;8.50;87.70
35463;DHT22;21578;47.892;9.970;2023-02-21T20:32:06;8.50;87.60
35463;DHT22;21578;47.892;9.970;2023-02-21T20:36:54;8.50;87.40
35463;DHT22;21578;47.892;9.970;2023-02-21T20:41:43;8.50;87.60
35463;DHT22;21578;47.892;9.970;2023-02-21T20:46:30;8.40;87.90
35463;DHT22;21578;47.892;9.970;2023-02-21T20:51:27;8.20;88.30
35463;DHT22;21578;47.892;9.970;2023-02-21T20:56:15;8.20;88.60
35463;DHT22;21578;47.892;9.970;2023-02-21T21:01:02;8.10;88.80
35463;DHT22;21578;47.892;9.970;2023-02-21T21:05:49;8.00;89.10
35463;DHT22;21578;47.892;9.970;2023-02-21T21:10:36;7.90;88.60
35463;DHT22;21578;47.892;9.970;2023-02-21T21:15:25;7.80;88.70
35463;DHT22;21578;47.892;9.970;2023-02-21T21:20:17;7.60;89.60
35463;DHT22;21578;47.892;9.970;2023-02-21T21:25:04;7.40;90.40
35463;DHT22;21578;47.892;9.970;2023-02-21T21:29:53;7.30;90.90
35463;DHT22;21578;47.892;9.970;2023-02-21T21:34:44;7.10;91.30
35463;DHT22;21578;47.892;9.970;2023-02-21T21:39:31;7.00;91.40
35463;DHT22;21578;47.892;9.970;2023-02-21T21:44:22;6.90;91.70
35463;DHT22;21578;47.892;9.970;2023-02-21T21:49:10;6.90;92.40
35463;DHT22;21578;47.892;9.970;2023-02-21T21:54:00;6.80;92.40
35463;DHT22;21578;47.892;9.970;2023-02-21T21:58:47;6.80;92.50
35463;DHT22;21578;47.892;9.970;2023-02-21T22:03:34;6.70;92.20
35463;DHT22;21578;47.892;9.970;2023-02-21T22:08:22;6.60;92.70
35463;DHT22;21578;47.892;9.970;2023-02-21T22:13:12;6.50;93.20
35463;DHT22;21578;47.892;9.970;2023-02-21T22:17:59;6.40;94.00
35463;DHT22;21578;47.892;9.970;2023-02-21T22:22:49;6.40;93.90
35463;DHT22;21578;47.892;9.970;2023-02-21T22:27:37;6.30;93.40
35463;DHT22;21578;47.892;9.970;2023-02-21T22:32:25;6.10;93.60
35463;DHT22;21578;47.892;9.970;2023-02-21T22:37:12;6.10;93.90
35463;DHT22;21578;47.892;9.970;2023-02-21T22:41:59;6.10;94.50
35463;DHT22;21578;47.892;9.970;2023-02-21T22:46:49;6.00;95.00
35463;DHT22;21578;47.892;9.970;2023-02-21T22:51:43;6.00;94.60
35463;DHT22;21578;47.892;9.970;2023-02-21T22:56:30;5.90;94.60
35463;DHT22;21578;47.892;9.970;2023-02-21T23:01:24;5.80;94.70
35463;DHT22;21578;47.892;9.970;2023-02-21T23:06:11;5.70;95.40
35463;DHT22;21578;47.892;9.970;2023-02-21T23:11:00;5.70;96.10
35463;DHT22;21578;47.892;9.970;2023-02-21T23:15:47;5.70;96.60
35463;DHT22;21578;47.892;9.970;2023-02-21T23:20:35;5.80;96.60
35463;DHT22;21578;47.892;9.970;2023-02-21T23:25:25;5.80;96.60
35463;DHT22;21578;47.892;9.970;2023-02-21T23:30:13;5.70;96.60
35463;DHT22;21578;47.892;9.970;2023-02-21T23:35:01;5.60;96.60
35463;DHT22;21578;47.892;9.970;2023-02-21T23:39:48;5.60;96.60
35463;DHT22;21578;47.892;9.970;2023-02-21T23:44:35;5.50;96.60
35463;DHT22;21578;47.892;9.970;2023-02-21T23:49:23;5.40;96.60
35463;DHT22;21578;47.892;9.970;2023-02-21T23:54:11;5.40;96.60
35463;DHT22;21578;47.892;9.970;2023-02-21T23:58:59;5.30;96.60
